Time;durP1;ratioP1;P1;durP2;ratioP2;P2;SDS_P1;SDS_P2;PMS_P1;PMS_P2;Temp;Humidity;BMP_temperature;BMP_pressure;BME280_temperature;BME280_humidity;BME280_pressure;Samples;Min_cycle;Max_cycle;Signal;HPM_P1;HPM_P2
2023/01/01 00:02:08;;;;;;;9.80;3.63;;;;;;;;;;5014597;28;20206;-52
2023/01/01 00:04:34;;;;;;;13.30;3.83;;;;;;;;;;5013021;28;20232;-51
2023/01/01 00:07:01;;;;;;;7.70;3.20;;;;;;;;;;5014629;28;20241;-51
2023/01/01 00:12:12;;;;;;;9.33;3.63;;;;;;;;;;5014890;28;20746;-50
2023/01/01 00:14:41;;;;;;;6.57;3.50;;;;;;;;;;5014176;28;20202;-52
2023/01/01 00:17:07;;;;;;;11.20;4.43;;;;;;;;;;5012548;28;20249;-52
2023/01/01 00:19:33;;;;;;;10.10;4.07;;;;;;;;;;5014357;28;20261;-50
2023/01/01 00:21:59;;;;;;;8.97;3.87;;;;;;;;;;5014530;28;20223;-51
2023/01/01 00:24:25;;;;;;;9.03;3.77;;;;;;;;;;5014361;28;20205;-49
2023/01/01 00:26:52;;;;;;;8.97;3.57;;;;;;;;;;5014078;28;20292;-51
2023/01/01 00:29:18;;;;;;;10.97;3.80;;;;;;;;;;5014334;28;20239;-50
2023/01/01 00:31:45;;;;;;;8.70;4.43;;;;;;;;;;5014210;28;20282;-51
2023/01/01 00:34:11;;;;;;;11.30;4.20;;;;;;;;;;5014409;28;20218;-50
2023/01/01 00:36:37;;;;;;;8.27;4.37;;;;;;;;;;5014170;28;20420;-50
2023/01/01 00:39:03;;;;;;;7.43;4.50;;;;;;;;;;5013309;28;20284;-51
2023/01/01 00:41:29;;;;;;;8.33;3.80;;;;;;;;;;5014013;28;20201;-50
2023/01/01 00:43:57;;;;;;;12.67;4.20;;;;;;;;;;5014047;28;20205;-50
2023/01/01 00:46:23;;;;;;;10.30;4.57;;;;;;;;;;5013976;28;20212;-51
2023/01/01 00:48:49;;;;;;;9.23;4.77;;;;;;;;;;5013873;28;20205;-50
2023/01/01 00:51:15;;;;;;;9.07;4.30;;;;;;;;;;5013646;28;20209;-49
2023/01/01 00:53:41;;;;;;;8.17;3.70;;;;;;;;;;5013718;28;20217;-49
2023/01/01 00:56:07;;;;;;;11.43;4.10;;;;;;;;;;5013827;28;20696;-49
2023/01/01 00:58:33;;;;;;;10.33;4.43;;;;;;;;;;5013771;28;20222;-51
2023/01/01 01:01:00;;;;;;;10.40;4.17;;;;;;;;;;5013262;28;20201;-51
2023/01/01 01:03:29;;;;;;;7.50;3.83;;;;;;;;;;5013379;28;20643;-50
2023/01/01 01:05:56;;;;;;;7.20;3.77;;;;;;;;;;5013633;28;20202;-50
2023/01/01 01:08:22;;;;;;;7.10;3.33;;;;;;;;;;5013654;28;20194;-50
2023/01/01 01:10:48;;;;;;;7.60;3.60;;;;;;;;;;5013388;28;20292;-50
2023/01/01 01:13:14;;;;;;;10.87;4.00;;;;;;;;;;5013465;28;20246;-51
2023/01/01 01:15:40;;;;;;;7.47;3.40;;;;;;;;;;5011120;28;20197;-50
2023/01/01 01:18:08;;;;;;;9.30;3.80;;;;;;;;;;5009734;28;20289;-51
2023/01/01 01:20:34;;;;;;;7.70;3.63;;;;;;;;;;5011072;28;20197;-49
2023/01/01 01:22:59;;;;;;;8.50;3.20;;;;;;;;;;5011440;28;20292;-50
2023/01/01 01:25:26;;;;;;;10.50;3.60;;;;;;;;;;5013316;28;20289;-50
2023/01/01 01:27:52;;;;;;;7.70;3.47;;;;;;;;;;5013280;28;20229;-48
2023/01/01 01:30:18;;;;;;;7.40;3.17;;;;;;;;;;5013244;28;20256;-50
2023/01/01 01:32:44;;;;;;;10.23;3.87;;;;;;;;;;5013150;28;20204;-50
2023/01/01 01:35:11;;;;;;;8.80;3.93;;;;;;;;;;5013598;28;20236;-48
2023/01/01 01:37:37;;;;;;;9.60;3.97;;;;;;;;;;5013071;28;20633;-48
2023/01/01 01:40:04;;;;;;;8.27;4.20;;;;;;;;;;5012884;28;20243;-48
2023/01/01 01:42:30;;;;;;;9.53;4.47;;;;;;;;;;5013182;28;20292;-48
2023/01/01 01:44:57;;;;;;;11.27;4.23;;;;;;;;;;5012972;28;20284;-48
2023/01/01 01:47:26;;;;;;;8.23;3.93;;;;;;;;;;5013143;28;20202;-48
2023/01/01 01:49:53;;;;;;;7.53;3.90;;;;;;;;;;5013015;28;20264;-48
2023/01/01 01:52:21;;;;;;;9.03;3.90;;;;;;;;;;5012949;28;20212;-50
2023/01/01 01:54:47;;;;;;;16.33;5.63;;;;;;;;;;5012722;28;20228;-48
2023/01/01 01:57:13;;;;;;;8.90;4.30;;;;;;;;;;5013062;28;20651;-48
2023/01/01 01:59:41;;;;;;;8.17;4.00;;;;;;;;;;5012682;28;20638;-49
2023/01/01 02:02:09;;;;;;;12.97;4.50;;;;;;;;;;5012623;28;20240;-49
2023/01/01 02:04:35;;;;;;;9.57;5.07;;;;;;;;;;5012578;28;20197;-51
2023/01/01 02:07:01;;;;;;;13.27;4.63;;;;;;;;;;5012059;28;20209;-49
2023/01/01 02:09:28;;;;;;;10.60;4.53;;;;;;;;;;5012616;28;20202;-49
2023/01/01 02:11:54;;;;;;;12.53;5.20;;;;;;;;;;5012515;28;20209;-48
2023/01/01 02:14:20;;;;;;;12.57;5.13;;;;;;;;;;5012608;28;20197;-50
2023/01/01 02:16:48;;;;;;;10.40;5.30;;;;;;;;;;5012298;28;20237;-49
2023/01/01 02:19:17;;;;;;;11.07;5.40;;;;;;;;;;5012107;28;20689;-49
2023/01/01 02:21:49;;;;;;;12.10;5.43;;;;;;;;;;5011513;28;20205;-48
2023/01/01 02:24:30;;;;;;;10.53;6.00;;;;;;;;;;5012292;28;20198;-49
2023/01/01 02:27:00;;;;;;;13.27;6.47;;;;;;;;;;5009163;28;20256;-49
2023/01/01 02:29:41;;;;;;;12.20;6.13;;;;;;;;;;5012382;28;20798;-49
2023/01/01 02:32:10;;;;;;;11.73;6.67;;;;;;;;;;5009283;28;20217;-51
2023/01/01 02:34:39;;;;;;;11.57;6.10;;;;;;;;;;5012076;28;20217;-49
2023/01/01 02:37:07;;;;;;;9.77;6.27;;;;;;;;;;5012315;28;20193;-50
2023/01/01 02:39:34;;;;;;;11.27;6.93;;;;;;;;;;5011965;28;20245;-48
2023/01/01 02:42:01;;;;;;;11.10;6.13;;;;;;;;;;5012003;28;20204;-52
2023/01/01 02:44:29;;;;;;;10.83;6.23;;;;;;;;;;5012152;28;20201;-49
2023/01/01 02:46:56;;;;;;;15.13;7.07;;;;;;;;;;5012012;28;20204;-49
2023/01/01 02:49:24;;;;;;;13.83;6.37;;;;;;;;;;5011898;28;20197;-49
2023/01/01 02:51:57;;;;;;;11.03;5.53;;;;;;;;;;5011919;28;20207;-48
2023/01/01 02:54:27;;;;;;;12.90;6.77;;;;;;;;;;5010194;28;20815;-48
2023/01/01 02:56:56;;;;;;;12.70;6.33;;;;;;;;;;5011983;28;20212;-48
2023/01/01 03:00:27;;;;;;;13.73;6.77;;;;;;;;;;5011942;28;20244;-49
2023/01/01 03:02:24;;;;;;;9.50;5.70;;;;;;;;;;5002681;28;20209;-49
2023/01/01 03:04:57;;;;;;;10.83;6.03;;;;;;;;;;5011640;28;20667;-49
2023/01/01 03:07:27;;;;;;;10.13;5.70;;;;;;;;;;5011893;28;20625;-49
2023/01/01 03:09:56;;;;;;;9.10;6.17;;;;;;;;;;5011904;28;20567;-49
2023/01/01 03:12:24;;;;;;;12.77;6.37;;;;;;;;;;5011951;28;20201;-49
2023/01/01 03:14:52;;;;;;;8.97;5.67;;;;;;;;;;5011947;28;20205;-49
2023/01/01 03:17:21;;;;;;;10.33;5.60;;;;;;;;;;5011846;28;20209;-49
2023/01/01 03:19:48;;;;;;;11.57;6.03;;;;;;;;;;5014788;28;20600;-49
2023/01/01 03:22:16;;;;;;;12.57;6.23;;;;;;;;;;5015789;28;20197;-49
2023/01/01 03:24:45;;;;;;;11.43;5.40;;;;;;;;;;5015666;28;20563;-49
2023/01/01 03:27:13;;;;;;;10.30;5.80;;;;;;;;;;5015695;28;20275;-49
2023/01/01 03:29:39;;;;;;;11.37;6.50;;;;;;;;;;5015522;28;20194;-49
2023/01/01 03:32:07;;;;;;;13.13;6.13;;;;;;;;;;5015526;28;20221;-49
2023/01/01 03:34:35;;;;;;;10.67;5.97;;;;;;;;;;5015322;28;20747;-49
2023/01/01 03:37:03;;;;;;;11.47;6.27;;;;;;;;;;5015396;28;20206;-49
2023/01/01 03:39:33;;;;;;;11.67;5.73;;;;;;;;;;5015419;28;20253;-48
2023/01/01 03:42:04;;;;;;;12.13;5.87;;;;;;;;;;5015315;28;20639;-50
2023/01/01 03:44:33;;;;;;;12.63;6.03;;;;;;;;;;5015462;28;20652;-48
2023/01/01 03:46:59;;;;;;;8.83;5.17;;;;;;;;;;5015255;28;20204;-48
2023/01/01 03:49:25;;;;;;;10.53;5.43;;;;;;;;;;5017220;28;20616;-50
2023/01/01 03:51:58;;;;;;;9.57;5.60;;;;;;;;;;5015229;28;20256;-50
2023/01/01 03:54:28;;;;;;;11.30;5.80;;;;;;;;;;5015423;28;20221;-50
2023/01/01 03:56:57;;;;;;;14.37;6.17;;;;;;;;;;5015281;28;20202;-48
2023/01/01 03:59:27;;;;;;;10.23;5.73;;;;;;;;;;5014973;28;20574;-50
2023/01/01 04:01:57;;;;;;;9.77;5.53;;;;;;;;;;5015024;28;20578;-49
2023/01/01 04:04:24;;;;;;;11.53;5.73;;;;;;;;;;5015855;28;20672;-49
2023/01/01 04:06:50;;;;;;;10.87;5.10;;;;;;;;;;5014817;28;20627;-49
2023/01/01 04:09:18;;;;;;;9.47;4.80;;;;;;;;;;5014645;28;20649;-49
2023/01/01 04:12:00;;;;;;;9.73;4.60;;;;;;;;;;5014843;28;20213;-50
2023/01/01 04:14:29;;;;;;;9.77;4.87;;;;;;;;;;5014884;28;20280;-49
2023/01/01 04:16:55;;;;;;;11.80;5.03;;;;;;;;;;5014688;28;20197;-51
2023/01/01 04:19:21;;;;;;;9.50;4.83;;;;;;;;;;5014441;28;20814;-49
2023/01/01 04:21:47;;;;;;;9.43;4.77;;;;;;;;;;5014792;28;20203;-49
2023/01/01 04:24:13;;;;;;;11.63;4.53;;;;;;;;;;5014653;28;20198;-48
2023/01/01 04:26:40;;;;;;;6.90;4.30;;;;;;;;;;5014527;28;20202;-49
2023/01/01 04:29:06;;;;;;;14.17;4.60;;;;;;;;;;5013993;28;20205;-48
2023/01/01 04:31:33;;;;;;;8.00;4.37;;;;;;;;;;5012778;28;20198;-48
2023/01/01 04:34:00;;;;;;;6.40;4.60;;;;;;;;;;5014195;28;20268;-49
2023/01/01 04:36:26;;;;;;;9.80;4.00;;;;;;;;;;5014413;28;20244;-50
2023/01/01 04:38:52;;;;;;;6.17;3.87;;;;;;;;;;5014165;28;20276;-50
2023/01/01 04:41:18;;;;;;;8.63;3.60;;;;;;;;;;5014119;28;20712;-50
2023/01/01 04:43:49;;;;;;;5.63;3.47;;;;;;;;;;5014274;28;20205;-50
2023/01/01 04:46:15;;;;;;;9.33;3.40;;;;;;;;;;5014363;28;20736;-49
2023/01/01 04:48:42;;;;;;;6.27;3.37;;;;;;;;;;5014063;28;20252;-50
2023/01/01 04:51:09;;;;;;;5.17;3.30;;;;;;;;;;5013943;28;20651;-50
2023/01/01 04:53:35;;;;;;;7.17;3.07;;;;;;;;;;5014139;28;20233;-50
2023/01/01 04:56:03;;;;;;;5.23;3.10;;;;;;;;;;5014041;28;20237;-49
2023/01/01 04:58:29;;;;;;;6.43;3.23;;;;;;;;;;5013858;28;20197;-50
2023/01/01 05:00:55;;;;;;;9.00;3.33;;;;;;;;;;5014002;28;20268;-49
2023/01/01 05:03:21;;;;;;;7.97;3.80;;;;;;;;;;5013843;28;20194;-50
2023/01/01 05:05:58;;;;;;;5.37;3.27;;;;;;;;;;5013728;28;20281;-51
2023/01/01 05:08:24;;;;;;;4.97;3.00;;;;;;;;;;5013753;28;20292;-50
2023/01/01 05:10:50;;;;;;;6.87;2.90;;;;;;;;;;5013653;28;20301;-49
2023/01/01 05:13:16;;;;;;;4.97;2.90;;;;;;;;;;5013642;28;20557;-50
2023/01/01 05:15:42;;;;;;;6.33;2.50;;;;;;;;;;5013707;28;20208;-49
2023/01/01 05:18:08;;;;;;;5.27;2.50;;;;;;;;;;5013579;28;20577;-49
2023/01/01 05:20:34;;;;;;;10.73;3.20;;;;;;;;;;5011299;28;20230;-49
2023/01/01 05:23:01;;;;;;;6.93;2.70;;;;;;;;;;5013025;28;20197;-49
2023/01/01 05:25:27;;;;;;;4.73;2.80;;;;;;;;;;5013447;28;20205;-49
2023/01/01 05:27:53;;;;;;;5.90;2.50;;;;;;;;;;5013229;28;20205;-49
2023/01/01 05:30:19;;;;;;;5.60;2.50;;;;;;;;;;5013499;28;20719;-49
2023/01/01 05:32:45;;;;;;;6.27;2.50;;;;;;;;;;5013205;28;20244;-50
2023/01/01 05:35:11;;;;;;;5.57;2.43;;;;;;;;;;5013010;28;20253;-49
2023/01/01 05:37:37;;;;;;;4.80;2.50;;;;;;;;;;5013366;28;20676;-49
2023/01/01 05:40:05;;;;;;;4.20;2.60;;;;;;;;;;5012873;28;20284;-49
2023/01/01 05:42:32;;;;;;;5.50;2.60;;;;;;;;;;5012551;28;20259;-50
2023/01/01 05:44:58;;;;;;;3.20;2.27;;;;;;;;;;5013120;28;20241;-50
2023/01/01 05:47:24;;;;;;;5.27;2.60;;;;;;;;;;5012884;28;20683;-49
2023/01/01 05:49:50;;;;;;;6.50;2.30;;;;;;;;;;5012626;28;20189;-50
2023/01/01 05:52:16;;;;;;;3.70;2.20;;;;;;;;;;5013072;28;20597;-49
2023/01/01 05:54:42;;;;;;;6.90;1.93;;;;;;;;;;5012945;28;20225;-49
2023/01/01 05:57:09;;;;;;;6.00;2.03;;;;;;;;;;5012834;28;20627;-49
2023/01/01 05:59:35;;;;;;;3.07;2.00;;;;;;;;;;5012754;28;20225;-49
2023/01/01 06:02:01;;;;;;;5.03;2.13;;;;;;;;;;5012606;28;20529;-49
2023/01/01 06:04:28;;;;;;;4.23;2.23;;;;;;;;;;5012812;28;20204;-49
2023/01/01 06:06:54;;;;;;;5.13;2.10;;;;;;;;;;5012650;28;20202;-49
2023/01/01 06:09:20;;;;;;;4.47;2.13;;;;;;;;;;5012725;28;20209;-49
2023/01/01 06:11:46;;;;;;;5.30;2.10;;;;;;;;;;5012608;28;20660;-50
2023/01/01 06:14:13;;;;;;;5.93;2.20;;;;;;;;;;5012408;28;20235;-50
2023/01/01 06:16:39;;;;;;;6.77;2.00;;;;;;;;;;5012439;28;20206;-50
2023/01/01 06:19:05;;;;;;;2.67;1.80;;;;;;;;;;5012335;28;20229;-50
2023/01/01 06:21:31;;;;;;;5.53;2.10;;;;;;;;;;5012453;28;20201;-50
2023/01/01 06:23:58;;;;;;;6.43;1.90;;;;;;;;;;5012416;28;20664;-50
2023/01/01 06:26:25;;;;;;;2.37;1.70;;;;;;;;;;5012463;28;20233;-50
2023/01/01 06:28:52;;;;;;;4.00;1.90;;;;;;;;;;5012231;28;20197;-50
2023/01/01 06:31:20;;;;;;;4.07;1.93;;;;;;;;;;5012455;28;20207;-49
2023/01/01 06:33:46;;;;;;;4.20;2.03;;;;;;;;;;5012167;28;20206;-50
2023/01/01 06:36:14;;;;;;;2.43;1.97;;;;;;;;;;5012309;28;20189;-50
2023/01/01 06:38:41;;;;;;;3.60;2.00;;;;;;;;;;5012294;28;20201;-49
2023/01/01 06:41:08;;;;;;;4.70;2.00;;;;;;;;;;5012072;28;20320;-50
2023/01/01 06:43:34;;;;;;;4.30;1.90;;;;;;;;;;5012135;28;20208;-50
2023/01/01 06:46:01;;;;;;;4.40;1.63;;;;;;;;;;5012089;28;20197;-49
2023/01/01 06:48:29;;;;;;;3.83;1.60;;;;;;;;;;5012109;28;20190;-50
2023/01/01 06:50:55;;;;;;;5.90;1.93;;;;;;;;;;5011958;28;20231;-50
2023/01/01 06:53:23;;;;;;;2.60;1.70;;;;;;;;;;5011993;28;20660;-50
2023/01/01 06:55:49;;;;;;;5.50;1.93;;;;;;;;;;5012031;28;20209;-50
2023/01/01 06:58:15;;;;;;;3.90;1.80;;;;;;;;;;5011962;28;20718;-51
2023/01/01 07:00:42;;;;;;;4.90;2.00;;;;;;;;;;5011822;28;20316;-50
2023/01/01 07:03:09;;;;;;;5.07;1.80;;;;;;;;;;5012082;28;20198;-50
2023/01/01 07:05:36;;;;;;;2.70;1.50;;;;;;;;;;5011987;28;20201;-51
2023/01/01 07:08:02;;;;;;;6.43;1.70;;;;;;;;;;5011990;28;20197;-50
2023/01/01 07:10:28;;;;;;;6.47;1.93;;;;;;;;;;5011882;28;20202;-50
2023/01/01 07:12:54;;;;;;;2.83;1.70;;;;;;;;;;5011756;28;20247;-50
2023/01/01 07:15:20;;;;;;;3.27;1.73;;;;;;;;;;5012049;28;20209;-50
2023/01/01 07:17:46;;;;;;;7.03;1.87;;;;;;;;;;5011775;28;20198;-51
2023/01/01 07:20:12;;;;;;;3.47;1.80;;;;;;;;;;5011670;28;20707;-51
2023/01/01 07:22:40;;;;;;;11.77;1.70;;;;;;;;;;5011863;28;20691;-51
2023/01/01 07:25:06;;;;;;;2.53;1.50;;;;;;;;;;5011811;28;20202;-49
2023/01/01 07:27:32;;;;;;;3.67;2.17;;;;;;;;;;5011698;28;20208;-50
2023/01/01 07:29:58;;;;;;;4.43;1.83;;;;;;;;;;5011728;28;20565;-50
2023/01/01 07:32:24;;;;;;;4.07;1.63;;;;;;;;;;5011758;28;20691;-50
2023/01/01 07:34:50;;;;;;;3.23;1.80;;;;;;;;;;5011447;28;20218;-50
2023/01/01 07:37:16;;;;;;;3.93;1.70;;;;;;;;;;5011563;28;20194;-50
2023/01/01 07:39:44;;;;;;;2.17;1.57;;;;;;;;;;5011443;28;20371;-50
2023/01/01 07:42:10;;;;;;;4.77;1.70;;;;;;;;;;5011503;28;20581;-51
2023/01/01 07:44:36;;;;;;;3.33;2.00;;;;;;;;;;5011700;28;20198;-50
2023/01/01 07:47:02;;;;;;;2.40;1.60;;;;;;;;;;5011546;28;20247;-50
2023/01/01 07:49:28;;;;;;;4.50;1.80;;;;;;;;;;5011496;28;20281;-50
2023/01/01 07:51:54;;;;;;;6.70;2.07;;;;;;;;;;5011478;28;20288;-50
2023/01/01 07:54:20;;;;;;;4.60;1.70;;;;;;;;;;5011548;28;20201;-50
2023/01/01 07:56:47;;;;;;;6.03;1.83;;;;;;;;;;5011439;28;20595;-50
2023/01/01 07:59:13;;;;;;;4.13;1.70;;;;;;;;;;5011297;28;20596;-50
2023/01/01 08:01:39;;;;;;;5.63;1.93;;;;;;;;;;5011379;28;20202;-50
2023/01/01 08:04:05;;;;;;;4.17;2.00;;;;;;;;;;5011849;28;20634;-50
2023/01/01 08:06:31;;;;;;;3.17;1.80;;;;;;;;;;5015027;28;20210;-50
2023/01/01 08:08:57;;;;;;;6.20;1.90;;;;;;;;;;5014744;28;20588;-50
2023/01/01 08:11:23;;;;;;;4.77;1.80;;;;;;;;;;5015034;28;20197;-50
2023/01/01 08:13:50;;;;;;;4.63;2.20;;;;;;;;;;5014792;28;20232;-50
2023/01/01 08:16:16;;;;;;;4.57;1.80;;;;;;;;;;5014760;28;20193;-50
2023/01/01 08:18:42;;;;;;;3.83;2.17;;;;;;;;;;5014679;28;20244;-50
2023/01/01 08:21:08;;;;;;;4.77;2.10;;;;;;;;;;5014540;28;20616;-50
2023/01/01 08:23:34;;;;;;;4.57;2.00;;;;;;;;;;5007142;28;20195;-50
2023/01/01 08:26:01;;;;;;;3.13;1.90;;;;;;;;;;4993967;28;20202;-50
2023/01/01 08:28:27;;;;;;;4.00;2.10;;;;;;;;;;4994862;28;20213;-51
2023/01/01 08:30:54;;;;;;;5.97;3.10;;;;;;;;;;4995017;28;20273;-51
2023/01/01 08:33:21;;;;;;;8.33;2.70;;;;;;;;;;4990947;28;20580;-50
2023/01/01 08:35:53;;;;;;;5.83;2.17;;;;;;;;;;4994292;28;20221;-51
2023/01/01 08:38:20;;;;;;;7.50;3.20;;;;;;;;;;4994237;28;20719;-51
2023/01/01 08:40:46;;;;;;;4.77;2.67;;;;;;;;;;4994258;28;20338;-50
2023/01/01 08:43:12;;;;;;;4.23;2.00;;;;;;;;;;4994249;28;20202;-50
2023/01/01 08:45:38;;;;;;;6.30;2.10;;;;;;;;;;4994562;28;20206;-50
2023/01/01 08:48:05;;;;;;;3.83;1.87;;;;;;;;;;4993988;28;20205;-49
2023/01/01 08:50:31;;;;;;;6.00;2.00;;;;;;;;;;4994187;28;20194;-50
2023/01/01 08:52:58;;;;;;;4.07;1.77;;;;;;;;;;4994051;28;20570;-49
2023/01/01 08:55:24;;;;;;;5.60;1.90;;;;;;;;;;4993436;28;20194;-51
2023/01/01 08:57:50;;;;;;;4.10;1.67;;;;;;;;;;4994215;28;20197;-50
2023/01/01 09:00:16;;;;;;;4.90;2.30;;;;;;;;;;4993776;28;20739;-52
2023/01/01 09:02:43;;;;;;;6.13;2.07;;;;;;;;;;4994020;28;20640;-50
2023/01/01 09:05:10;;;;;;;6.47;2.43;;;;;;;;;;4993905;28;20194;-50
2023/01/01 09:07:36;;;;;;;3.70;2.00;;;;;;;;;;4993273;28;20692;-52
2023/01/01 09:10:02;;;;;;;4.13;2.00;;;;;;;;;;4993760;28;20661;-51
2023/01/01 09:12:29;;;;;;;4.23;2.10;;;;;;;;;;4993533;28;20199;-50
2023/01/01 09:14:55;;;;;;;11.93;1.90;;;;;;;;;;4993232;28;20604;-51
2023/01/01 09:17:21;;;;;;;3.53;2.00;;;;;;;;;;4993539;28;20676;-50
2023/01/01 09:19:47;;;;;;;2.53;1.30;;;;;;;;;;4993364;28;20237;-51
2023/01/01 09:22:14;;;;;;;2.83;1.30;;;;;;;;;;4993742;28;20582;-49
2023/01/01 09:24:40;;;;;;;4.47;1.57;;;;;;;;;;4993344;28;20290;-49
2023/01/01 09:27:08;;;;;;;3.43;1.50;;;;;;;;;;4993479;28;20218;-50
2023/01/01 09:29:34;;;;;;;3.70;1.50;;;;;;;;;;4993640;28;20194;-49
2023/01/01 09:32:00;;;;;;;2.87;1.70;;;;;;;;;;4993456;28;20253;-50
2023/01/01 09:34:26;;;;;;;4.63;1.63;;;;;;;;;;4993232;28;20222;-54
2023/01/01 09:36:52;;;;;;;3.40;1.80;;;;;;;;;;4993333;28;20241;-50
2023/01/01 09:39:19;;;;;;;1.80;1.57;;;;;;;;;;4991426;28;20241;-53
2023/01/01 09:42:01;;;;;;;2.80;1.80;;;;;;;;;;4993887;28;20209;-52
2023/01/01 09:44:35;;;;;;;3.60;1.77;;;;;;;;;;4993796;28;20284;-52
2023/01/01 09:47:03;;;;;;;3.80;2.13;;;;;;;;;;4993538;28;20202;-50
2023/01/01 09:49:31;;;;;;;4.67;2.33;;;;;;;;;;4993554;28;20653;-51
2023/01/01 09:52:00;;;;;;;4.77;2.47;;;;;;;;;;4993349;28;20198;-51
2023/01/01 09:54:34;;;;;;;6.00;2.37;;;;;;;;;;4993608;28;20257;-51
2023/01/01 09:57:01;;;;;;;4.93;2.23;;;;;;;;;;4991436;28;20201;-50
2023/01/01 09:59:27;;;;;;;4.47;2.10;;;;;;;;;;4993389;28;20230;-51
2023/01/01 10:01:56;;;;;;;5.57;1.97;;;;;;;;;;4993289;28;20672;-51
2023/01/01 10:04:33;;;;;;;4.90;1.77;;;;;;;;;;4993367;28;20198;-50
2023/01/01 10:07:03;;;;;;;2.70;1.70;;;;;;;;;;4993247;28;20300;-51
2023/01/01 10:09:35;;;;;;;3.97;1.40;;;;;;;;;;4993392;28;20685;-50
2023/01/01 10:12:05;;;;;;;3.73;1.40;;;;;;;;;;4993111;28;20680;-52
2023/01/01 10:14:33;;;;;;;8.63;1.47;;;;;;;;;;4992921;28;20653;-50
2023/01/01 10:17:01;;;;;;;5.33;1.50;;;;;;;;;;4992801;28;20220;-51
2023/01/01 10:19:30;;;;;;;5.37;2.00;;;;;;;;;;4992786;28;20329;-51
2023/01/01 10:21:59;;;;;;;3.47;1.60;;;;;;;;;;4992720;28;20587;-51
2023/01/01 10:24:42;;;;;;;3.13;1.40;;;;;;;;;;4992969;28;20205;-50
2023/01/01 10:27:12;;;;;;;1.70;1.30;;;;;;;;;;4992243;28;20202;-50
2023/01/01 10:29:40;;;;;;;1.83;1.33;;;;;;;;;;4992777;28;20722;-50
2023/01/01 10:32:16;;;;;;;2.07;1.43;;;;;;;;;;4992926;28;20202;-51
2023/01/01 10:34:42;;;;;;;1.77;1.20;;;;;;;;;;4992636;28;20245;-52
2023/01/01 10:37:08;;;;;;;3.00;1.60;;;;;;;;;;4992492;28;20202;-50
2023/01/01 10:39:35;;;;;;;2.67;1.50;;;;;;;;;;4992757;28;20234;-50
2023/01/01 10:42:02;;;;;;;2.97;1.30;;;;;;;;;;4992840;28;20206;-50
2023/01/01 10:44:29;;;;;;;4.90;1.60;;;;;;;;;;4993033;28;20206;-51
2023/01/01 10:46:56;;;;;;;2.60;1.30;;;;;;;;;;4992797;28;20209;-49
2023/01/01 10:49:22;;;;;;;5.20;1.40;;;;;;;;;;4992611;28;20194;-51
2023/01/01 10:51:49;;;;;;;2.17;1.50;;;;;;;;;;4990826;28;20202;-51
2023/01/01 10:54:24;;;;;;;2.90;1.80;;;;;;;;;;4992946;28;20206;-49
2023/01/01 10:56:50;;;;;;;3.13;1.50;;;;;;;;;;4992565;28;20666;-50
2023/01/01 10:59:34;;;;;;;3.53;1.57;;;;;;;;;;4992421;28;20328;-51
2023/01/01 11:02:14;;;;;;;1.90;1.50;;;;;;;;;;4992624;28;20202;-49
2023/01/01 11:04:40;;;;;;;1.93;1.50;;;;;;;;;;4992812;28;20260;-50
2023/01/01 11:07:06;;;;;;;3.70;1.80;;;;;;;;;;4992550;28;20198;-51
2023/01/01 11:09:37;;;;;;;4.97;1.60;;;;;;;;;;4992863;28;20289;-49
2023/01/01 11:12:06;;;;;;;2.73;1.40;;;;;;;;;;4992677;28;20218;-50
2023/01/01 11:14:38;;;;;;;2.37;1.40;;;;;;;;;;4992599;28;20198;-51
2023/01/01 11:17:05;;;;;;;4.07;1.87;;;;;;;;;;4992689;28;20264;-49
2023/01/01 11:19:34;;;;;;;3.77;1.50;;;;;;;;;;4992474;28;20240;-50
2023/01/01 11:22:00;;;;;;;5.93;1.80;;;;;;;;;;4992092;28;20633;-51
2023/01/01 11:24:27;;;;;;;3.87;1.63;;;;;;;;;;4992579;28;20293;-50
2023/01/01 11:27:04;;;;;;;5.43;1.90;;;;;;;;;;4992264;28;20206;-50
2023/01/01 11:29:30;;;;;;;3.17;1.50;;;;;;;;;;4992459;28;20681;-52
2023/01/01 11:31:56;;;;;;;3.13;1.70;;;;;;;;;;4992142;28;20318;-51
2023/01/01 11:34:28;;;;;;;3.20;1.70;;;;;;;;;;4991978;28;20736;-51
2023/01/01 11:37:07;;;;;;;3.90;1.73;;;;;;;;;;4992261;28;20220;-51
2023/01/01 11:39:36;;;;;;;4.97;2.30;;;;;;;;;;4993287;28;20264;-52
2023/01/01 11:42:02;;;;;;;3.50;2.03;;;;;;;;;;4995817;28;20222;-52
2023/01/01 11:44:35;;;;;;;5.77;2.20;;;;;;;;;;4996126;28;20204;-52
2023/01/01 11:47:01;;;;;;;5.23;2.40;;;;;;;;;;4995765;28;20202;-50
2023/01/01 11:49:29;;;;;;;5.47;2.30;;;;;;;;;;4996003;28;20198;-51
2023/01/01 11:51:55;;;;;;;3.83;2.30;;;;;;;;;;4995710;28;20210;-50
2023/01/01 11:54:24;;;;;;;4.50;2.63;;;;;;;;;;4995716;28;20288;-52
2023/01/01 11:56:53;;;;;;;4.20;2.80;;;;;;;;;;4995820;28;20202;-51
2023/01/01 11:59:21;;;;;;;9.03;4.37;;;;;;;;;;4995654;28;20273;-51
2023/01/01 12:01:49;;;;;;;10.87;5.47;;;;;;;;;;4995866;28;20195;-51
2023/01/01 12:04:18;;;;;;;7.93;2.47;;;;;;;;;;4995447;28;20202;-51
2023/01/01 12:06:49;;;;;;;8.83;4.27;;;;;;;;;;4995583;28;20248;-50
2023/01/01 12:09:16;;;;;;;8.73;3.50;;;;;;;;;;4995422;28;20649;-52
2023/01/01 12:11:46;;;;;;;5.43;2.40;;;;;;;;;;4993349;28;20205;-50
2023/01/01 12:14:16;;;;;;;8.23;4.97;;;;;;;;;;4995322;28;20241;-51
2023/01/01 12:16:47;;;;;;;4.33;1.93;;;;;;;;;;4995479;28;20209;-50
2023/01/01 12:19:18;;;;;;;6.33;3.20;;;;;;;;;;4995169;28;20208;-49
2023/01/01 12:21:45;;;;;;;7.97;4.40;;;;;;;;;;4995280;28;20190;-49
2023/01/01 12:24:12;;;;;;;4.83;2.20;;;;;;;;;;4995128;28;20206;-49
2023/01/01 12:26:47;;;;;;;6.63;2.27;;;;;;;;;;4995143;28;20251;-48
2023/01/01 12:29:29;;;;;;;5.30;2.17;;;;;;;;;;4995102;28;20233;-48
2023/01/01 12:32:01;;;;;;;6.60;2.57;;;;;;;;;;4995026;28;20253;-48
2023/01/01 12:34:30;;;;;;;6.30;2.37;;;;;;;;;;4995165;28;20559;-48
2023/01/01 12:37:00;;;;;;;4.17;2.03;;;;;;;;;;4994855;28;20701;-48
2023/01/01 12:39:48;;;;;;;6.50;2.40;;;;;;;;;;4994911;28;20276;-48
2023/01/01 12:42:21;;;;;;;4.57;1.93;;;;;;;;;;4994858;28;20198;-48
2023/01/01 12:44:54;;;;;;;5.93;2.17;;;;;;;;;;4994886;28;20202;-49
2023/01/01 12:47:29;;;;;;;3.17;2.20;;;;;;;;;;4994654;28;20218;-49
2023/01/01 12:50:04;;;;;;;4.07;2.10;;;;;;;;;;4994312;28;20198;-49
2023/01/01 12:52:35;;;;;;;4.03;1.90;;;;;;;;;;4994628;28;20260;-49
2023/01/01 12:55:11;;;;;;;4.10;1.77;;;;;;;;;;4994681;28;20210;-49
2023/01/01 12:57:40;;;;;;;5.80;2.10;;;;;;;;;;4994635;28;20573;-49
2023/01/01 13:00:13;;;;;;;5.93;2.00;;;;;;;;;;4994472;28;20218;-52
2023/01/01 13:02:45;;;;;;;3.87;1.90;;;;;;;;;;4994604;28;20206;-52
2023/01/01 13:05:15;;;;;;;3.50;1.90;;;;;;;;;;4994409;28;20210;-52
2023/01/01 13:07:42;;;;;;;5.00;2.23;;;;;;;;;;4994595;28;20245;-51
2023/01/01 13:10:16;;;;;;;8.03;2.40;;;;;;;;;;4994234;28;20756;-51
2023/01/01 13:12:42;;;;;;;10.67;6.83;;;;;;;;;;4991658;28;20256;-50
2023/01/01 13:15:42;;;;;;;4.83;2.70;;;;;;;;;;4994240;28;20206;-50
2023/01/01 13:18:18;;;;;;;5.90;2.10;;;;;;;;;;4934057;29;20614;-52
2023/01/01 13:20:45;;;;;;;7.20;2.57;;;;;;;;;;4932117;29;20278;-51
2023/01/01 13:23:26;;;;;;;3.33;1.90;;;;;;;;;;4962524;28;20295;-51
2023/01/01 13:26:06;;;;;;;7.30;2.47;;;;;;;;;;4994029;28;20206;-51
2023/01/01 13:28:32;;;;;;;3.73;2.17;;;;;;;;;;4993892;28;20202;-51
2023/01/01 13:30:58;;;;;;;4.90;1.90;;;;;;;;;;4993862;28;20607;-50
2023/01/01 13:33:33;;;;;;;5.87;2.07;;;;;;;;;;4994072;28;20281;-51
2023/01/01 13:36:18;;;;;;;7.60;2.63;;;;;;;;;;4991784;28;20226;-50
2023/01/01 13:38:44;;;;;;;6.10;2.23;;;;;;;;;;4994047;28;20257;-51
2023/01/01 13:41:27;;;;;;;5.30;1.97;;;;;;;;;;4993562;28;20237;-52
2023/01/01 13:44:10;;;;;;;4.07;2.10;;;;;;;;;;4993914;28;20206;-51
2023/01/01 13:46:39;;;;;;;5.07;1.60;;;;;;;;;;4994003;28;20198;-50
2023/01/01 13:49:15;;;;;;;5.77;2.23;;;;;;;;;;4993558;28;20245;-52
2023/01/01 13:52:00;;;;;;;7.47;2.37;;;;;;;;;;4991704;28;20225;-49
2023/01/01 13:54:41;;;;;;;4.07;2.30;;;;;;;;;;4981853;28;20210;-49
2023/01/01 13:57:14;;;;;;;5.70;2.23;;;;;;;;;;4990414;28;20206;-51
2023/01/01 13:59:51;;;;;;;5.53;2.10;;;;;;;;;;4992838;28;20222;-49
2023/01/01 14:02:22;;;;;;;3.60;1.90;;;;;;;;;;4992361;28;20198;-50
2023/01/01 14:04:50;;;;;;;5.67;1.93;;;;;;;;;;4993161;28;20290;-51
2023/01/01 14:07:29;;;;;;;6.30;2.17;;;;;;;;;;4993034;28;20594;-50
2023/01/01 14:10:07;;;;;;;4.80;2.17;;;;;;;;;;4992926;28;20715;-51
2023/01/01 14:12:37;;;;;;;4.67;2.10;;;;;;;;;;4993172;28;20213;-51
2023/01/01 14:15:13;;;;;;;5.63;2.43;;;;;;;;;;4992557;28;20564;-51
2023/01/01 14:17:40;;;;;;;4.97;2.20;;;;;;;;;;4990912;28;20206;-51
2023/01/01 14:20:08;;;;;;;7.77;2.60;;;;;;;;;;4992673;28;20280;-50
2023/01/01 14:22:35;;;;;;;6.93;2.33;;;;;;;;;;4992790;28;20217;-50
2023/01/01 14:25:01;;;;;;;4.23;2.60;;;;;;;;;;4992567;28;20198;-51
2023/01/01 14:27:28;;;;;;;6.00;2.23;;;;;;;;;;4992795;28;20743;-50
2023/01/01 14:29:54;;;;;;;5.57;2.60;;;;;;;;;;4992718;28;20206;-51
2023/01/01 14:32:22;;;;;;;7.57;2.60;;;;;;;;;;4992412;28;20206;-51
2023/01/01 14:34:57;;;;;;;4.87;2.83;;;;;;;;;;4992455;28;20710;-51
2023/01/01 14:37:25;;;;;;;6.60;2.70;;;;;;;;;;4992384;28;20252;-51
2023/01/01 14:40:05;;;;;;;4.60;2.50;;;;;;;;;;4992396;28;20245;-50
2023/01/01 14:42:31;;;;;;;6.93;3.50;;;;;;;;;;4992512;28;20194;-51
2023/01/01 14:45:00;;;;;;;6.27;3.80;;;;;;;;;;4992298;28;20683;-50
2023/01/01 14:47:26;;;;;;;6.37;3.73;;;;;;;;;;4992377;28;20650;-51
2023/01/01 14:49:53;;;;;;;5.43;2.90;;;;;;;;;;4989700;28;20240;-52
2023/01/01 14:52:22;;;;;;;6.33;3.67;;;;;;;;;;4991705;28;20233;-49